Terminal Aerodrome Forecast
Issued by NWS

Home | Current Version | Previous Version | Text Only | Print | Product List | Glossary On
Versions: 1 2 3 4 5 6 7 8 9 10 11 12 13 14
000
FTPA31 PHFO 272333
TAFHOG
TAF
PHOG 272333Z 2800/2824 02011KT P6SM VCSH SCT035 SCT050
     FM280600 10005KT P6SM FEW035 SCT050
     FM282000 02011KT P6SM FEW035 SCT050
      AMD LTD TO VIS AND WIND 2809/2816=

USA.gov is the U.S. government's official web portal to all federal, state and local government web resources and services.